createdAt,value
2018-09-18T00:00:30.093Z,98.55
2018-09-18T00:03:32.997Z,97.17
2018-09-18T00:06:35.893Z,99.03
2018-09-18T00:09:38.827Z,98.14
2018-09-18T00:12:41.744Z,99.40
2018-09-18T00:15:44.718Z,97.31
2018-09-18T00:18:47.703Z,96.65
2018-09-18T00:21:50.612Z,99.60
2018-09-18T00:24:53.564Z,100.00
2018-09-18T00:27:56.512Z,98.93
2018-09-18T00:30:59.473Z,100.00
2018-09-18T00:34:02.424Z,98.84
2018-09-18T00:37:05.322Z,100.00
2018-09-18T00:40:08.288Z,100.00
2018-09-18T00:43:11.251Z,100.00
2018-09-18T00:46:14.166Z,96.01
2018-09-18T00:49:17.111Z,97.81
2018-09-18T00:52:20.000Z,96.62
2018-09-18T00:55:22.936Z,100.00
2018-09-18T00:58:25.956Z,100.00
2018-09-18T01:01:28.887Z,90.54
2018-09-18T01:04:31.848Z,95.12
2018-09-18T01:07:34.831Z,90.75
2018-09-18T01:10:37.801Z,88.03
2018-09-18T01:13:40.817Z,91.16
2018-09-18T01:16:43.741Z,84.80
2018-09-18T01:19:46.652Z,85.90
2018-09-18T01:22:49.546Z,67.65
2018-09-18T01:25:52.512Z,69.86
2018-09-18T01:28:55.469Z,70.42
2018-09-18T01:31:58.417Z,66.61
2018-09-18T01:35:01.337Z,67.98
2018-09-18T01:38:04.351Z,67.56
2018-09-18T01:41:07.301Z,68.77
2018-09-18T01:44:10.328Z,63.15
2018-09-18T01:47:13.300Z,61.92
2018-09-18T01:50:16.280Z,64.06
2018-09-18T01:53:19.256Z,62.76
2018-09-18T01:56:22.225Z,61.96
2018-09-18T01:59:25.149Z,62.00
2018-09-18T02:02:28.072Z,63.60
2018-09-18T02:05:30.994Z,66.41
2018-09-18T02:08:33.894Z,62.57
2018-09-18T02:11:36.845Z,61.54
2018-09-18T02:14:39.779Z,61.78
2018-09-18T02:17:42.696Z,60.93
2018-09-18T02:20:45.612Z,62.45
2018-09-18T02:23:48.485Z,63.25
2018-09-18T02:26:51.421Z,64.15
2018-09-18T02:29:54.358Z,64.06
2018-09-18T02:32:57.250Z,63.21
2018-09-18T02:36:00.177Z,64.99
2018-09-18T02:39:04.941Z,62.68
2018-09-18T02:42:07.897Z,64.13
2018-09-18T02:45:10.801Z,67.40
2018-09-18T02:48:13.762Z,64.79
2018-09-18T02:51:16.673Z,63.23
2018-09-18T02:54:19.586Z,63.66
2018-09-18T02:57:22.521Z,61.67
2018-09-18T03:00:25.489Z,61.90
2018-09-18T03:03:28.484Z,62.30
2018-09-18T03:06:31.452Z,62.19
2018-09-18T03:09:34.385Z,64.76
2018-09-18T03:12:37.297Z,61.25
2018-09-18T03:15:40.185Z,62.92
2018-09-18T03:18:43.192Z,61.92
2018-09-18T03:21:46.121Z,60.04
2018-09-18T03:24:49.053Z,59.37
2018-09-18T03:27:51.943Z,60.65
2018-09-18T03:30:54.846Z,59.95
2018-09-18T03:33:57.772Z,59.65
2018-09-18T03:37:00.673Z,59.10
2018-09-18T03:40:04.039Z,59.97
2018-09-18T03:43:06.999Z,59.73
2018-09-18T03:46:09.960Z,59.02
2018-09-18T03:49:12.873Z,60.41
2018-09-18T03:52:15.948Z,60.63
2018-09-18T03:55:18.877Z,61.16
2018-09-18T03:58:21.790Z,60.09
2018-09-18T04:01:24.720Z,60.27
2018-09-18T04:04:27.738Z,60.65
2018-09-18T04:07:30.704Z,61.41
2018-09-18T04:10:33.637Z,60.58
2018-09-18T04:13:36.595Z,61.17
2018-09-18T04:16:39.565Z,61.43
2018-09-18T04:19:42.585Z,60.96
2018-09-18T04:22:45.533Z,61.63
2018-09-18T04:25:48.625Z,61.18
2018-09-18T04:28:51.545Z,61.50
2018-09-18T04:31:54.451Z,61.32
2018-09-18T04:34:57.369Z,62.77
2018-09-18T04:38:00.266Z,63.13
2018-09-18T04:41:03.229Z,65.06
2018-09-18T04:44:06.601Z,63.34
2018-09-18T04:47:09.541Z,64.01
2018-09-18T04:50:12.485Z,67.46
2018-09-18T04:53:15.448Z,64.14
2018-09-18T04:56:18.366Z,63.76
2018-09-18T04:59:21.245Z,62.94
2018-09-18T05:02:24.170Z,63.97
2018-09-18T05:05:27.066Z,62.91
2018-09-18T05:08:30.053Z,64.98
2018-09-18T05:11:32.988Z,64.11
2018-09-18T05:14:35.966Z,65.67
2018-09-18T05:17:39.218Z,63.54
2018-09-18T05:20:42.169Z,64.47
2018-09-18T05:23:45.138Z,64.88
2018-09-18T05:26:48.076Z,64.29
2018-09-18T05:29:51.011Z,63.79
2018-09-18T05:32:54.027Z,63.88
2018-09-18T05:35:56.995Z,65.90
2018-09-18T05:38:59.931Z,65.97
2018-09-18T05:42:02.958Z,63.58
2018-09-18T05:45:06.202Z,66.66
2018-09-18T05:48:11.475Z,66.84
2018-09-18T05:51:14.390Z,65.18
2018-09-18T05:54:17.304Z,65.46
2018-09-18T05:57:20.249Z,66.60
2018-09-18T06:00:23.288Z,65.51
2018-09-18T06:03:26.203Z,66.64
2018-09-18T06:06:29.152Z,65.09
2018-09-18T06:09:32.089Z,65.41
2018-09-18T06:12:35.262Z,65.96
2018-09-18T06:15:38.213Z,67.32
2018-09-18T06:18:41.461Z,66.69
2018-09-18T06:21:44.357Z,67.23
2018-09-18T06:24:47.281Z,67.50
2018-09-18T06:27:50.206Z,66.79
2018-09-18T06:30:53.301Z,67.43
2018-09-18T06:33:56.233Z,66.44
2018-09-18T06:36:59.201Z,66.05
2018-09-18T06:40:02.129Z,67.72
2018-09-18T06:43:05.400Z,67.23
2018-09-18T06:46:09.413Z,67.24
2018-09-18T06:49:12.329Z,65.32
2018-09-18T06:52:15.237Z,65.36
2018-09-18T06:55:18.194Z,65.82
2018-09-18T06:58:21.136Z,64.75
2018-09-18T07:01:24.042Z,65.46
2018-09-18T07:04:26.958Z,66.16
2018-09-18T07:07:29.993Z,65.42
2018-09-18T07:10:32.920Z,64.37
2018-09-18T07:13:36.419Z,63.51
2018-09-18T07:16:39.357Z,64.76
2018-09-18T07:19:42.346Z,64.23
2018-09-18T07:22:45.277Z,64.60
2018-09-18T07:25:48.197Z,66.12
2018-09-18T07:28:51.131Z,63.98
2018-09-18T07:31:54.051Z,64.80
2018-09-18T07:34:56.990Z,63.94
2018-09-18T07:37:59.909Z,62.61
2018-09-18T07:41:02.887Z,66.67
2018-09-18T07:44:05.934Z,63.23
2018-09-18T07:47:08.953Z,65.19
2018-09-18T07:50:12.125Z,63.12
2018-09-18T07:53:15.077Z,61.96
2018-09-18T07:56:18.026Z,64.08
2018-09-18T07:59:20.984Z,62.23
2018-09-18T08:02:23.938Z,62.02
2018-09-18T08:05:26.876Z,63.07
2018-09-18T08:08:29.817Z,60.09
2018-09-18T08:11:32.821Z,60.90
2018-09-18T08:14:35.777Z,60.78
2018-09-18T08:17:38.712Z,60.51
2018-09-18T08:20:41.606Z,59.11
2018-09-18T08:23:44.549Z,60.03
2018-09-18T08:26:47.540Z,60.14
2018-09-18T08:29:50.486Z,58.87
2018-09-18T08:32:53.453Z,59.53
2018-09-18T08:35:56.329Z,60.53
2018-09-18T08:38:59.349Z,58.94
2018-09-18T08:42:02.286Z,58.11
2018-09-18T08:45:05.329Z,58.11
2018-09-18T08:48:08.495Z,57.15
2018-09-18T08:51:11.456Z,56.11
2018-09-18T08:54:14.427Z,59.07
2018-09-18T08:57:18.148Z,55.29
2018-09-18T09:00:21.176Z,56.54
2018-09-18T09:03:24.218Z,56.44
2018-09-18T09:06:27.262Z,56.06
2018-09-18T09:09:30.146Z,54.74
2018-09-18T09:12:33.042Z,55.45
2018-09-18T09:15:35.998Z,58.06
2018-09-18T09:18:39.000Z,57.82
2018-09-18T09:21:41.908Z,55.50
2018-09-18T09:24:44.859Z,54.70
2018-09-18T09:27:47.904Z,53.09
2018-09-18T09:30:50.772Z,50.79
2018-09-18T09:33:53.707Z,52.63
2018-09-18T09:36:56.693Z,51.62
2018-09-18T09:39:59.586Z,53.47
2018-09-18T09:43:02.535Z,54.15
2018-09-18T09:46:05.506Z,55.18
2018-09-18T09:49:08.442Z,54.00
2018-09-18T09:52:11.435Z,54.66
2018-09-18T09:55:14.326Z,52.69
2018-09-18T09:58:17.306Z,55.00
2018-09-18T10:01:26.097Z,56.75
2018-09-18T10:04:29.047Z,53.36
2018-09-18T10:07:32.001Z,54.84
2018-09-18T10:10:34.975Z,55.66
2018-09-18T10:13:37.931Z,54.85
2018-09-18T10:16:40.857Z,54.77
2018-09-18T10:19:43.803Z,54.12
2018-09-18T10:22:46.741Z,55.34
2018-09-18T10:25:49.670Z,55.35
2018-09-18T10:28:53.026Z,53.89
2018-09-18T10:31:55.935Z,54.84
2018-09-18T10:34:58.913Z,55.15
2018-09-18T10:38:02.335Z,53.74
2018-09-18T10:41:05.537Z,53.42
2018-09-18T10:44:08.367Z,55.45
2018-09-18T10:47:11.366Z,54.53
2018-09-18T10:50:14.848Z,60.91
2018-09-18T10:53:17.770Z,58.45
2018-09-18T10:56:20.878Z,57.69
2018-09-18T10:59:24.229Z,56.44
2018-09-18T11:02:27.113Z,61.10
2018-09-18T11:05:29.994Z,61.58
2018-09-18T11:08:33.181Z,63.07
2018-09-18T11:11:36.153Z,64.81
2018-09-18T11:14:39.178Z,66.60
2018-09-18T11:17:42.028Z,65.68
2018-09-18T11:20:44.982Z,65.47
2018-09-18T11:23:47.901Z,68.76
2018-09-18T11:26:50.870Z,63.77
2018-09-18T11:29:53.811Z,64.76
2018-09-18T11:32:57.350Z,64.49
2018-09-18T11:36:00.952Z,62.49
2018-09-18T11:39:05.210Z,59.93
2018-09-18T11:42:09.039Z,60.21
2018-09-18T11:45:12.061Z,58.17
2018-09-18T11:48:15.001Z,61.55
2018-09-18T11:51:19.503Z,59.55
2018-09-18T11:54:22.592Z,60.13
2018-09-18T11:57:25.517Z,56.02
2018-09-18T12:00:31.933Z,54.49
2018-09-18T12:03:34.905Z,56.43
2018-09-18T12:06:37.853Z,53.69
2018-09-18T12:09:40.802Z,53.66
2018-09-18T12:12:43.720Z,53.04
2018-09-18T12:15:46.722Z,52.57
2018-09-18T12:18:49.657Z,51.38
2018-09-18T12:21:52.650Z,51.46
2018-09-18T12:24:55.602Z,51.16
2018-09-18T12:27:58.604Z,48.91
2018-09-18T12:31:01.608Z,49.78
2018-09-18T12:34:04.589Z,47.96
2018-09-18T12:37:07.537Z,47.79
2018-09-18T12:40:10.497Z,48.60
2018-09-18T12:43:13.446Z,49.71
2018-09-18T12:46:16.408Z,49.99
2018-09-18T12:49:19.398Z,50.13
2018-09-18T12:52:22.296Z,46.06
2018-09-18T12:55:25.219Z,48.05
2018-09-18T12:58:28.201Z,47.52
2018-09-18T13:01:31.164Z,46.08
2018-09-18T13:04:34.118Z,48.15
2018-09-18T13:07:36.990Z,44.75
2018-09-18T13:10:39.931Z,44.66
2018-09-18T13:13:42.941Z,44.47
2018-09-18T13:16:45.925Z,44.96
2018-09-18T13:19:48.926Z,46.43
2018-09-18T13:22:51.825Z,41.62
2018-09-18T13:25:54.869Z,41.88
2018-09-18T13:28:57.824Z,39.27
2018-09-18T13:32:00.789Z,39.44
2018-09-18T13:35:03.725Z,38.91
2018-09-18T13:38:06.646Z,39.49
2018-09-18T13:41:10.109Z,41.19
2018-09-18T13:44:13.018Z,37.13
2018-09-18T13:47:15.961Z,35.28
2018-09-18T13:50:18.985Z,35.10
2018-09-18T13:53:22.048Z,35.57
2018-09-18T13:56:25.149Z,34.10
2018-09-18T13:59:28.164Z,32.41
2018-09-18T14:02:31.183Z,33.99
2018-09-18T14:05:34.302Z,35.30
2018-09-18T14:08:37.255Z,33.30
2018-09-18T14:11:40.179Z,31.99
2018-09-18T14:14:43.162Z,33.30
2018-09-18T14:17:46.082Z,34.29
2018-09-18T14:20:49.093Z,32.65
2018-09-18T14:23:52.010Z,33.65
2018-09-18T14:26:55.192Z,33.25
2018-09-18T14:29:58.251Z,35.38
2018-09-18T14:33:01.193Z,35.01
2018-09-18T14:36:04.144Z,32.79
2018-09-18T14:39:09.995Z,35.69
2018-09-18T14:42:12.969Z,34.99
2018-09-18T14:45:16.054Z,34.81
2018-09-18T14:48:19.029Z,33.72
2018-09-18T14:51:22.011Z,34.75
2018-09-18T14:54:24.873Z,34.61
2018-09-18T14:57:27.786Z,34.24
2018-09-18T15:00:30.744Z,34.89
2018-09-18T15:03:33.736Z,36.32
2018-09-18T15:06:36.681Z,35.75
2018-09-18T15:09:39.621Z,35.08
2018-09-18T15:12:42.541Z,34.42
2018-09-18T15:15:45.566Z,35.25
2018-09-18T15:18:48.459Z,34.96
2018-09-18T15:21:51.447Z,36.32
2018-09-18T15:24:54.634Z,36.13
2018-09-18T15:27:58.461Z,36.18
2018-09-18T15:31:03.744Z,36.31
2018-09-18T15:34:06.892Z,36.23
2018-09-18T15:37:09.708Z,36.87
2018-09-18T15:40:12.669Z,37.28
2018-09-18T15:43:16.529Z,36.49
2018-09-18T15:46:19.535Z,37.34
2018-09-18T15:49:22.450Z,37.55
2018-09-18T15:52:25.400Z,36.08
2018-09-18T15:55:28.490Z,37.21
2018-09-18T15:58:32.164Z,36.42
2018-09-18T16:01:35.613Z,38.17
2018-09-18T16:04:38.984Z,37.99
2018-09-18T16:07:42.700Z,37.17
2018-09-18T16:10:45.590Z,37.60
2018-09-18T16:13:48.649Z,38.48
2018-09-18T16:16:51.565Z,38.59
2018-09-18T16:19:54.548Z,37.63
2018-09-18T16:22:58.049Z,39.25
2018-09-18T16:26:00.979Z,38.71
2018-09-18T16:29:04.032Z,38.90
2018-09-18T16:32:07.021Z,38.68
2018-09-18T16:35:09.966Z,40.79
2018-09-18T16:38:13.057Z,40.58
2018-09-18T16:41:15.985Z,40.41
2018-09-18T16:44:18.887Z,40.47
2018-09-18T16:47:21.845Z,38.50
2018-09-18T16:50:24.749Z,39.49
2018-09-18T16:53:27.689Z,39.02
2018-09-18T16:56:31.116Z,40.37
2018-09-18T16:59:34.026Z,41.63
2018-09-18T17:02:36.944Z,41.29
2018-09-18T17:05:39.943Z,41.85
2018-09-18T17:08:42.820Z,44.20
2018-09-18T17:11:45.778Z,43.16
2018-09-18T17:14:48.737Z,44.42
2018-09-18T17:17:51.619Z,45.18
2018-09-18T17:20:55.081Z,45.16
2018-09-18T17:23:57.984Z,43.26
2018-09-18T17:27:00.960Z,46.52
2018-09-18T17:30:03.969Z,46.54
2018-09-18T17:33:07.732Z,47.06
2018-09-18T17:36:10.664Z,48.25
2018-09-18T17:39:13.709Z,49.41
2018-09-18T17:42:16.797Z,49.63
2018-09-18T17:45:19.761Z,52.03
2018-09-18T17:48:22.839Z,53.68
2018-09-18T17:51:25.801Z,53.34
2018-09-18T17:54:28.781Z,54.28
2018-09-18T17:57:31.815Z,55.01
2018-09-18T18:00:35.269Z,58.07
2018-09-18T18:03:39.266Z,60.69
2018-09-18T18:06:42.949Z,61.64
2018-09-18T18:09:45.899Z,63.19
2018-09-18T18:12:48.807Z,60.26
2018-09-18T18:15:51.799Z,61.79
2018-09-18T18:18:55.267Z,58.06
2018-09-18T18:21:58.261Z,59.85
2018-09-18T18:25:01.808Z,59.83
2018-09-18T18:28:05.432Z,54.88
2018-09-18T18:31:09.384Z,55.17
2018-09-18T18:34:12.297Z,52.69
2018-09-18T18:37:15.244Z,57.60
2018-09-18T18:40:19.076Z,57.13
2018-09-18T18:43:22.179Z,61.56
2018-09-18T18:46:25.827Z,61.76
2018-09-18T18:49:33.663Z,64.67
2018-09-18T18:52:36.611Z,65.76
2018-09-18T18:55:39.546Z,67.30
2018-09-18T18:58:42.512Z,69.12
2018-09-18T19:01:46.143Z,68.07
2018-09-18T19:04:49.674Z,65.95
2018-09-18T19:07:52.995Z,69.42
2018-09-18T19:10:56.134Z,58.98
2018-09-18T19:13:59.618Z,59.59
2018-09-18T19:17:02.569Z,55.74
2018-09-18T19:20:06.302Z,57.56
2018-09-18T19:23:09.809Z,56.15
2018-09-18T19:26:12.835Z,58.42
2018-09-18T19:29:16.299Z,60.95
2018-09-18T19:32:19.321Z,61.49
2018-09-18T19:35:22.563Z,61.94
2018-09-18T19:38:25.543Z,63.38
2018-09-18T19:41:29.312Z,64.91
2018-09-18T19:44:32.273Z,67.77
2018-09-18T19:47:35.221Z,70.29
2018-09-18T19:50:38.283Z,70.66
2018-09-18T19:53:41.746Z,70.52
2018-09-18T19:56:45.502Z,73.89
2018-09-18T19:59:48.420Z,72.39
2018-09-18T20:02:51.318Z,74.57
2018-09-18T20:05:54.234Z,75.10
2018-09-18T20:08:57.148Z,76.90
2018-09-18T20:12:00.209Z,74.33
2018-09-18T20:15:03.289Z,75.13
2018-09-18T20:18:06.290Z,76.79
2018-09-18T20:21:09.384Z,75.86
2018-09-18T20:24:12.570Z,77.24
2018-09-18T20:27:15.481Z,77.69
2018-09-18T20:30:19.061Z,77.66
2018-09-18T20:33:22.922Z,78.07
2018-09-18T20:36:26.006Z,77.41
2018-09-18T20:39:30.935Z,79.10
2018-09-18T20:42:38.667Z,79.45
2018-09-18T20:45:46.844Z,80.30
2018-09-18T20:48:49.945Z,81.33
2018-09-18T20:51:53.078Z,79.76
2018-09-18T20:54:56.149Z,79.85
2018-09-18T20:57:59.833Z,81.92
2018-09-18T21:01:04.429Z,79.22
2018-09-18T21:04:08.543Z,81.42
2018-09-18T21:07:17.354Z,80.16
2018-09-18T21:10:21.452Z,80.61
2018-09-18T21:13:24.417Z,80.66
2018-09-18T21:16:27.393Z,81.46
2018-09-18T21:19:30.314Z,82.13
2018-09-18T21:22:33.357Z,82.79
2018-09-18T21:26:18.372Z,83.93
2018-09-18T21:29:22.122Z,83.26
2018-09-18T21:32:25.167Z,84.76
2018-09-18T21:35:28.117Z,84.29
2018-09-18T21:38:31.314Z,82.91
2018-09-18T21:41:34.915Z,83.38
2018-09-18T21:44:37.845Z,85.52
2018-09-18T21:47:40.784Z,85.04
2018-09-18T21:50:44.398Z,86.72
2018-09-18T21:53:47.946Z,88.49
2018-09-18T21:56:50.990Z,86.10
2018-09-18T21:59:54.533Z,86.69
2018-09-18T22:02:59.034Z,85.46
2018-09-18T22:06:02.485Z,84.96
2018-09-18T22:09:06.028Z,85.52
2018-09-18T22:12:10.152Z,85.00
2018-09-18T22:15:13.122Z,86.03
2018-09-18T22:18:16.077Z,87.63
2018-09-18T22:21:19.026Z,86.15
2018-09-18T22:24:21.945Z,89.11
2018-09-18T22:27:24.886Z,87.17
2018-09-18T22:30:27.804Z,88.99
2018-09-18T22:33:30.698Z,89.17
2018-09-18T22:36:33.602Z,89.18
2018-09-18T22:39:36.595Z,89.10
2018-09-18T22:42:39.517Z,90.59
2018-09-18T22:45:42.438Z,90.44
2018-09-18T22:48:45.462Z,91.22
2018-09-18T22:51:48.437Z,90.58
2018-09-18T22:54:51.360Z,92.02
2018-09-18T22:57:54.331Z,92.38
2018-09-18T23:00:57.275Z,90.79
2018-09-18T23:04:00.184Z,92.57
2018-09-18T23:07:03.185Z,94.81
2018-09-18T23:10:06.143Z,96.08
2018-09-18T23:13:09.095Z,97.86
2018-09-18T23:16:12.065Z,96.49
2018-09-18T23:19:15.076Z,94.68
2018-09-18T23:22:18.011Z,96.57
2018-09-18T23:25:20.921Z,96.60
2018-09-18T23:28:23.872Z,95.24
2018-09-18T23:31:26.864Z,96.32
2018-09-18T23:34:29.815Z,93.91
2018-09-18T23:37:32.777Z,95.54
2018-09-18T23:40:35.714Z,98.18
2018-09-18T23:43:38.657Z,98.87
2018-09-18T23:46:41.566Z,98.89
2018-09-18T23:49:44.507Z,99.18
2018-09-18T23:52:47.482Z,98.44
2018-09-18T23:55:50.381Z,100.00
2018-09-18T23:58:53.570Z,100.00
